»·PEaware :: N299X KSBS-KTEX

N299X :: KSBS-KTEX

FLIGHT INFORMATION

Flight Status: Arrived
Operator: Privately registered:
United States
More flights under this callsign
Pilot: Russell T. (852)
Aircraft: BEECH AIRCRAFT BONANZA
(BE36)
More flights by this aircraft type
Origin: KSBS Steamboat Springs/Adams
United States
Destination: KTEX Telluride Regl
United States
More flights between these airports :: More routes between these airports
Route: BQZ EKR ETL
File this flight plan on PilotEdge
Remarks:
Altitude:
(Current/Filed)
11,500ft
Speed:
(Current/Filed)
150kts
Departed: 19-May-23 06:17 PM
Arrived: 19-May-23 07:29 PM
Distance/Time
Traveled:
161nm/1:12
Distance/Time
To Go:
Arrived

Flight Plot

Page will automatically refresh every two minutes.

Flight plan parsing failed; only flown route is shown


Map Options




Map Legend


Flown Route
Filed Route
Departure Airport
Arrival Airport
Navaid (VOR, NDB)
Fix

Horizontal Profiles

Position Reports

Time Latitude Longitude Heading Altitude Ground
Speed
19-May-23 17:49 40.516392 -106.864800 228 6882ft 0kts
19-May-23 17:50 40.516392 -106.864800 228 6882ft 0kts
19-May-23 17:51 40.516392 -106.864800 228 6882ft 0kts
19-May-23 17:52 40.516392 -106.864800 228 6882ft 0kts
19-May-23 17:53 40.516392 -106.864800 228 6882ft 0kts
19-May-23 17:54 40.516392 -106.864800 228 6882ft 0kts
19-May-23 17:55 40.516392 -106.864800 228 6882ft 0kts
19-May-23 17:56 40.516392 -106.864800 228 6882ft 0kts
19-May-23 17:57 40.516392 -106.864800 228 6882ft 0kts
19-May-23 17:58 40.516392 -106.864800 228 6882ft 0kts
19-May-23 17:59 40.516392 -106.864800 228 6882ft 0kts
19-May-23 18:00 40.516392 -106.864800 228 6882ft 0kts
19-May-23 18:08 40.516392 -106.864800 228 6882ft 0kts
19-May-23 18:09 40.516392 -106.864800 228 6882ft 0kts
19-May-23 18:10 40.516392 -106.864800 228 6882ft 0kts
19-May-23 18:11 40.516391 -106.864801 228 6882ft 0kts
19-May-23 18:12 40.516359 -106.864898 266 6882ft 6kts
19-May-23 18:13 40.514656 -106.865211 150 6880ft 13kts
19-May-23 18:14 40.511713 -106.863102 156 6885ft 6kts
19-May-23 18:15 40.511122 -106.862946 323 6885ft 3kts
19-May-23 18:16 40.519949 -106.868990 334 6901ft 105kts
19-May-23 18:17 40.529906 -106.891621 186 7827ft 112kts
19-May-23 18:18 40.498530 -106.894377 185 8979ft 116kts
19-May-23 18:19 40.465846 -106.897291 184 10091ft 119kts
19-May-23 18:20 40.443991 -106.926016 243 11020ft 119kts
19-May-23 18:21 40.428512 -106.967697 244 11512ft 148kts
19-May-23 18:22 40.408879 -107.020326 244 11507ft 168kts
19-May-23 18:23 40.388211 -107.075924 244 11509ft 171kts
19-May-23 18:24 40.367123 -107.132517 244 11510ft 173kts
19-May-23 18:25 40.345908 -107.189260 244 11501ft 172kts
19-May-23 18:26 40.324922 -107.245360 244 11501ft 171kts
19-May-23 18:27 40.303944 -107.301409 244 11504ft 173kts
19-May-23 18:28 40.282757 -107.357780 244 11499ft 172kts
19-May-23 18:29 40.261686 -107.413923 244 11504ft 172kts
19-May-23 18:30 40.240323 -107.470408 244 11499ft 172kts
19-May-23 18:31 40.219085 -107.526189 244 11495ft 170kts
19-May-23 18:32 40.198380 -107.581812 244 11490ft 170kts
19-May-23 18:33 40.177079 -107.637423 244 11495ft 171kts
19-May-23 18:34 40.155836 -107.693437 244 11495ft 172kts
19-May-23 18:35 40.134557 -107.749339 244 11492ft 172kts
19-May-23 18:36 40.113130 -107.805455 244 11496ft 172kts
19-May-23 18:37 40.091698 -107.861653 244 11503ft 172kts
19-May-23 18:38 40.069795 -107.917094 230 11491ft 171kts
19-May-23 18:39 40.024665 -107.932283 188 11501ft 172kts
19-May-23 18:40 39.979480 -107.940705 189 11507ft 172kts
19-May-23 18:41 39.931700 -107.947901 188 11499ft 171kts
19-May-23 18:42 39.884157 -107.955928 188 11507ft 173kts
19-May-23 18:43 39.836243 -107.964015 188 11502ft 165kts
19-May-23 18:44 39.788966 -107.971969 188 11500ft 173kts
19-May-23 18:45 39.740443 -107.980121 188 11508ft 177kts
19-May-23 18:46 39.691741 -107.988311 188 11497ft 177kts
19-May-23 18:47 39.643580 -107.996346 188 11512ft 172kts
19-May-23 18:48 39.594805 -108.004487 188 11496ft 177kts
19-May-23 18:49 39.546123 -108.012651 188 11504ft 174kts
19-May-23 18:50 39.497830 -108.020735 188 11491ft 174kts
19-May-23 18:51 39.450055 -108.028646 188 11495ft 173kts
19-May-23 18:52 39.402214 -108.036589 188 11493ft 173kts
19-May-23 18:53 39.354171 -108.044574 188 11502ft 175kts
19-May-23 18:54 39.305993 -108.052557 187 11494ft 173kts
19-May-23 18:55 39.257760 -108.060424 188 11494ft 175kts
19-May-23 18:56 39.209862 -108.068472 188 11494ft 172kts
19-May-23 18:57 39.162003 -108.076375 188 11498ft 174kts
19-May-23 18:58 39.113737 -108.084341 187 11499ft 177kts
19-May-23 18:59 39.065811 -108.092239 188 11490ft 172kts
19-May-23 19:00 39.018378 -108.100034 188 11501ft 173kts
19-May-23 19:01 38.970088 -108.107971 187 11501ft 178kts
19-May-23 19:02 38.921392 -108.115843 188 11499ft 176kts
19-May-23 19:03 38.873539 -108.123799 188 11507ft 172kts
19-May-23 19:04 38.825199 -108.131689 188 11503ft 174kts
19-May-23 19:05 38.777325 -108.139506 188 11504ft 174kts
19-May-23 19:06 38.729268 -108.147350 188 11506ft 174kts
19-May-23 19:08 38.681788 -108.155097 188 11507ft 174kts
19-May-23 19:09 38.633532 -108.162937 188 11502ft 172kts
19-May-23 19:10 38.585620 -108.170723 188 11503ft 174kts
19-May-23 19:11 38.537636 -108.178501 188 11502ft 174kts
19-May-23 19:12 38.489865 -108.186254 188 11500ft 173kts
19-May-23 19:13 38.441963 -108.193986 188 11503ft 174kts
19-May-23 19:14 38.393941 -108.201797 188 11497ft 173kts
19-May-23 19:15 38.345115 -108.209659 188 11494ft 177kts
19-May-23 19:16 38.296388 -108.217602 186 11502ft 178kts
19-May-23 19:17 38.246771 -108.225464 187 11500ft 177kts
19-May-23 19:18 38.197829 -108.233362 188 11505ft 177kts
19-May-23 19:19 38.149884 -108.239609 200 11497ft 172kts
19-May-23 19:20 38.117627 -108.249240 265 11505ft 164kts
19-May-23 19:21 38.083565 -108.262512 152 11510ft 174kts
19-May-23 19:22 38.037259 -108.241155 122 11114ft 185kts
19-May-23 19:23 38.020825 -108.179948 107 11127ft 184kts
19-May-23 19:24 38.005920 -108.118797 108 11109ft 181kts
19-May-23 19:25 37.992340 -108.063596 108 11097ft 149kts
19-May-23 19:26 37.980335 -108.015425 107 11061ft 143kts
19-May-23 19:27 37.967619 -107.968076 108 10588ft 143kts
19-May-23 19:28 37.957496 -107.926545 105 9368ft 105kts
19-May-23 19:29 37.954374 -107.911552 94 9021ft 0kts
19-May-23 19:30 37.954374 -107.911552 94 9021ft 0kts
19-May-23 19:31 37.953545 -107.907582 104 9020ft 29kts
19-May-23 19:32 37.952852 -107.901245 21 9047ft 1kts
19-May-23 19:32 37.953743 -107.902685 282 9052ft 5kts
19-May-23 19:34 37.954145 -107.902824 106 9052ft 0kts
19-May-23 19:35 37.954146 -107.902825 106 9052ft 0kts
19-May-23 19:36 37.954146 -107.902825 106 9052ft 0kts
19-May-23 19:37 37.954146 -107.902825 106 9052ft 0kts
19-May-23 19:37 37.954146 -107.902825 106 9052ft 0kts
19-May-23 19:38 37.954146 -107.902825 106 9052ft 0kts
19-May-23 19:39 37.954146 -107.902825 106 9052ft 0kts
19-May-23 19:41 37.954146 -107.902825 106 9052ft 0kts
19-May-23 19:42 37.954146 -107.902825 106 9052ft 0kts
19-May-23 19:42 37.954146 -107.902825 106 9052ft 0kts

Navigation Log

Ident Type
Flight plan parsing failed, navigation log unavailable